sensor_id;sensor_type;location;lat;lon;timestamp;pressure;altitude;pressure_sealevel;temperature;humidity
84318;BME280;74497;51.654;14.238;2023-12-07T00:01:14;100685.81;;;1.17;100.00
84318;BME280;74497;51.654;14.238;2023-12-07T00:03:40;100690.13;;;1.18;100.00
84318;BME280;74497;51.654;14.238;2023-12-07T00:06:05;100690.13;;;1.18;100.00
84318;BME280;74497;51.654;14.238;2023-12-07T00:08:31;100684.88;;;1.18;100.00
84318;BME280;74497;51.654;14.238;2023-12-07T00:10:57;100694.34;;;1.20;100.00
84318;BME280;74497;51.654;14.238;2023-12-07T00:13:22;100681.28;;;1.19;100.00
84318;BME280;74497;51.654;14.238;2023-12-07T00:15:48;100679.25;;;1.24;100.00
84318;BME280;74497;51.654;14.238;2023-12-07T00:18:14;100683.84;;;1.20;100.00
84318;BME280;74497;51.654;14.238;2023-12-07T00:20:39;100679.41;;;1.21;100.00
84318;BME280;74497;51.654;14.238;2023-12-07T00:23:05;100688.78;;;1.11;100.00
84318;BME280;74497;51.654;14.238;2023-12-07T00:25:31;100696.13;;;1.20;100.00
84318;BME280;74497;51.654;14.238;2023-12-07T00:27:57;100687.59;;;1.16;100.00
84318;BME280;74497;51.654;14.238;2023-12-07T00:30:22;100684.59;;;1.06;100.00
84318;BME280;74497;51.654;14.238;2023-12-07T00:32:48;100690.81;;;1.05;100.00
84318;BME280;74497;51.654;14.238;2023-12-07T00:35:14;100685.88;;;0.99;100.00
84318;BME280;74497;51.654;14.238;2023-12-07T00:37:41;100685.56;;;0.90;100.00
84318;BME280;74497;51.654;14.238;2023-12-07T00:40:07;100693.84;;;0.82;100.00
84318;BME280;74497;51.654;14.238;2023-12-07T00:42:33;100692.94;;;0.83;100.00
84318;BME280;74497;51.654;14.238;2023-12-07T00:45:00;100692.00;;;0.84;100.00
84318;BME280;74497;51.654;14.238;2023-12-07T00:47:26;100693.69;;;0.85;100.00
84318;BME280;74497;51.654;14.238;2023-12-07T00:49:52;100696.31;;;0.85;100.00
84318;BME280;74497;51.654;14.238;2023-12-07T00:52:17;100698.75;;;0.88;100.00
84318;BME280;74497;51.654;14.238;2023-12-07T00:54:43;100703.97;;;0.90;100.00
84318;BME280;74497;51.654;14.238;2023-12-07T00:57:09;100703.88;;;0.91;100.00
84318;BME280;74497;51.654;14.238;2023-12-07T00:59:35;100703.34;;;0.85;100.00
84318;BME280;74497;51.654;14.238;2023-12-07T01:02:06;100705.03;;;0.86;100.00
84318;BME280;74497;51.654;14.238;2023-12-07T01:04:32;100703.84;;;0.75;100.00
84318;BME280;74497;51.654;14.238;2023-12-07T01:06:58;100709.09;;;0.75;100.00
84318;BME280;74497;51.654;14.238;2023-12-07T01:09:24;100710.44;;;0.82;100.00
84318;BME280;74497;51.654;14.238;2023-12-07T01:11:51;100720.63;;;0.73;100.00
84318;BME280;74497;51.654;14.238;2023-12-07T01:14:17;100711.28;;;0.67;100.00
84318;BME280;74497;51.654;14.238;2023-12-07T01:16:43;100715.88;;;0.64;100.00
84318;BME280;74497;51.654;14.238;2023-12-07T01:19:09;100716.97;;;0.60;100.00
84318;BME280;74497;51.654;14.238;2023-12-07T01:21:35;100718.94;;;0.72;100.00
84318;BME280;74497;51.654;14.238;2023-12-07T01:24:01;100719.59;;;0.60;100.00
84318;BME280;74497;51.654;14.238;2023-12-07T01:26:26;100725.16;;;0.53;100.00
84318;BME280;74497;51.654;14.238;2023-12-07T01:28:52;100728.09;;;0.47;100.00
84318;BME280;74497;51.654;14.238;2023-12-07T01:31:17;100734.22;;;0.48;100.00
84318;BME280;74497;51.654;14.238;2023-12-07T01:33:43;100743.69;;;0.50;100.00
84318;BME280;74497;51.654;14.238;2023-12-07T01:36:10;100744.31;;;0.56;100.00
84318;BME280;74497;51.654;14.238;2023-12-07T01:38:36;100743.38;;;0.57;100.00
84318;BME280;74497;51.654;14.238;2023-12-07T01:41:02;100749.44;;;0.59;100.00
84318;BME280;74497;51.654;14.238;2023-12-07T01:43:28;100744.16;;;0.59;100.00
84318;BME280;74497;51.654;14.238;2023-12-07T01:45:55;100742.47;;;0.58;100.00
84318;BME280;74497;51.654;14.238;2023-12-07T01:48:23;100742.81;;;0.51;100.00
84318;BME280;74497;51.654;14.238;2023-12-07T01:50:50;100742.84;;;0.50;100.00
84318;BME280;74497;51.654;14.238;2023-12-07T01:53:16;100748.06;;;0.51;100.00
84318;BME280;74497;51.654;14.238;2023-12-07T01:55:42;100745.25;;;0.54;100.00
84318;BME280;74497;51.654;14.238;2023-12-07T01:58:08;100748.50;;;0.60;100.00
84318;BME280;74497;51.654;14.238;2023-12-07T02:00:35;100749.97;;;0.65;100.00
84318;BME280;74497;51.654;14.238;2023-12-07T02:03:03;100751.66;;;0.66;100.00
84318;BME280;74497;51.654;14.238;2023-12-07T02:05:29;100765.56;;;0.68;100.00
84318;BME280;74497;51.654;14.238;2023-12-07T02:07:56;100756.91;;;0.66;100.00
84318;BME280;74497;51.654;14.238;2023-12-07T02:10:22;100765.72;;;0.65;100.00
84318;BME280;74497;51.654;14.238;2023-12-07T02:12:48;100760.56;;;0.64;100.00
84318;BME280;74497;51.654;14.238;2023-12-07T02:15:14;100769.28;;;0.64;100.00
84318;BME280;74497;51.654;14.238;2023-12-07T02:18:15;100775.31;;;0.66;100.00
84318;BME280;74497;51.654;14.238;2023-12-07T02:20:57;100775.06;;;0.71;100.00
84318;BME280;74497;51.654;14.238;2023-12-07T02:23:25;100775.22;;;0.68;100.00
84318;BME280;74497;51.654;14.238;2023-12-07T02:25:52;100769.97;;;0.68;100.00
84318;BME280;74497;51.654;14.238;2023-12-07T02:28:18;100771.75;;;0.67;100.00
84318;BME280;74497;51.654;14.238;2023-12-07T02:30:44;100776.78;;;0.72;100.00
84318;BME280;74497;51.654;14.238;2023-12-07T02:33:11;100781.84;;;0.75;100.00
84318;BME280;74497;51.654;14.238;2023-12-07T02:35:37;100779.16;;;0.76;100.00
84318;BME280;74497;51.654;14.238;2023-12-07T02:38:05;100780.84;;;0.77;100.00
84318;BME280;74497;51.654;14.238;2023-12-07T02:40:31;100781.53;;;0.81;100.00
84318;BME280;74497;51.654;14.238;2023-12-07T02:42:57;100783.22;;;0.82;100.00
84318;BME280;74497;51.654;14.238;2023-12-07T02:45:24;100779.50;;;0.86;100.00
84318;BME280;74497;51.654;14.238;2023-12-07T02:47:51;100788.34;;;0.85;100.00
84318;BME280;74497;51.654;14.238;2023-12-07T02:50:17;100786.56;;;0.86;100.00
84318;BME280;74497;51.654;14.238;2023-12-07T02:52:42;100787.50;;;0.85;100.00
84318;BME280;74497;51.654;14.238;2023-12-07T02:55:08;100791.13;;;0.82;100.00
84318;BME280;74497;51.654;14.238;2023-12-07T02:57:34;100796.22;;;0.85;100.00
84318;BME280;74497;51.654;14.238;2023-12-07T03:00:00;100796.06;;;0.88;100.00
84318;BME280;74497;51.654;14.238;2023-12-07T03:02:26;100799.47;;;0.90;100.00
84318;BME280;74497;51.654;14.238;2023-12-07T03:04:52;100804.88;;;0.87;100.00
84318;BME280;74497;51.654;14.238;2023-12-07T03:07:18;100803.03;;;0.89;100.00
84318;BME280;74497;51.654;14.238;2023-12-07T03:09:43;100802.25;;;0.87;100.00
84318;BME280;74497;51.654;14.238;2023-12-07T03:12:09;100803.19;;;0.86;100.00
84318;BME280;74497;51.654;14.238;2023-12-07T03:14:34;100803.19;;;0.86;100.00
84318;BME280;74497;51.654;14.238;2023-12-07T03:17:00;100811.81;;;0.88;100.00
84318;BME280;74497;51.654;14.238;2023-12-07T03:19:26;100810.31;;;0.84;100.00
84318;BME280;74497;51.654;14.238;2023-12-07T03:21:51;100814.03;;;0.80;100.00
84318;BME280;74497;51.654;14.238;2023-12-07T03:24:17;100814.34;;;0.74;100.00
84318;BME280;74497;51.654;14.238;2023-12-07T03:26:43;100822.94;;;0.77;100.00
84318;BME280;74497;51.654;14.238;2023-12-07T03:29:08;100821.22;;;0.76;100.00
84318;BME280;74497;51.654;14.238;2023-12-07T03:31:34;100824.75;;;0.75;100.00
84318;BME280;74497;51.654;14.238;2023-12-07T03:34:00;100830.72;;;0.79;100.00
84318;BME280;74497;51.654;14.238;2023-12-07T03:36:27;100827.16;;;0.80;100.00
84318;BME280;74497;51.654;14.238;2023-12-07T03:38:53;100830.81;;;0.77;100.00
84318;BME280;74497;51.654;14.238;2023-12-07T03:41:18;100839.56;;;0.78;100.00
84318;BME280;74497;51.654;14.238;2023-12-07T03:43:44;100836.00;;;0.79;100.00
84318;BME280;74497;51.654;14.238;2023-12-07T03:46:10;100835.06;;;0.80;100.00
84318;BME280;74497;51.654;14.238;2023-12-07T03:48:36;100837.69;;;0.80;100.00
84318;BME280;74497;51.654;14.238;2023-12-07T03:51:02;100834.13;;;0.81;100.00
84318;BME280;74497;51.654;14.238;2023-12-07T03:53:28;100834.81;;;0.85;100.00
84318;BME280;74497;51.654;14.238;2023-12-07T03:55:54;100840.09;;;0.85;100.00
84318;BME280;74497;51.654;14.238;2023-12-07T03:58:19;100835.66;;;0.85;100.00
84318;BME280;74497;51.654;14.238;2023-12-07T04:00:45;100836.34;;;0.89;100.00
84318;BME280;74497;51.654;14.238;2023-12-07T04:03:11;100830.41;;;0.85;100.00
84318;BME280;74497;51.654;14.238;2023-12-07T04:05:37;100844.22;;;0.89;100.00
84318;BME280;74497;51.654;14.238;2023-12-07T04:08:03;100845.09;;;0.89;100.00
84318;BME280;74497;51.654;14.238;2023-12-07T04:10:30;100853.53;;;0.96;100.00
84318;BME280;74497;51.654;14.238;2023-12-07T04:12:56;100850.03;;;0.95;100.00
84318;BME280;74497;51.654;14.238;2023-12-07T04:15:22;100855.28;;;0.95;100.00
84318;BME280;74497;51.654;14.238;2023-12-07T04:17:48;100863.25;;;0.94;100.00
84318;BME280;74497;51.654;14.238;2023-12-07T04:20:14;100861.34;;;0.97;100.00
84318;BME280;74497;51.654;14.238;2023-12-07T04:22:40;100867.44;;;0.98;100.00
84318;BME280;74497;51.654;14.238;2023-12-07T04:25:06;100865.66;;;0.98;100.00
84318;BME280;74497;51.654;14.238;2023-12-07T04:27:33;100866.41;;;1.00;100.00
84318;BME280;74497;51.654;14.238;2023-12-07T04:29:58;100866.59;;;0.97;100.00
84318;BME280;74497;51.654;14.238;2023-12-07T04:32:24;100874.16;;;1.03;100.00
84318;BME280;74497;51.654;14.238;2023-12-07T04:34:50;100867.78;;;1.07;100.00
84318;BME280;74497;51.654;14.238;2023-12-07T04:37:15;100872.06;;;1.10;100.00
84318;BME280;74497;51.654;14.238;2023-12-07T04:39:41;100870.19;;;1.12;100.00
84318;BME280;74497;51.654;14.238;2023-12-07T04:42:07;100872.59;;;1.17;100.00
84318;BME280;74497;51.654;14.238;2023-12-07T04:44:32;100872.59;;;1.17;100.00
84318;BME280;74497;51.654;14.238;2023-12-07T04:46:58;100875.84;;;1.22;100.00
84318;BME280;74497;51.654;14.238;2023-12-07T04:49:24;100884.63;;;1.21;100.00
84318;BME280;74497;51.654;14.238;2023-12-07T04:51:49;100893.31;;;1.23;100.00
84318;BME280;74497;51.654;14.238;2023-12-07T04:54:15;100888.91;;;1.23;100.00
84318;BME280;74497;51.654;14.238;2023-12-07T04:56:41;100890.50;;;1.26;100.00
84318;BME280;74497;51.654;14.238;2023-12-07T04:59:08;100894.06;;;1.25;100.00
84318;BME280;74497;51.654;14.238;2023-12-07T05:01:38;100896.63;;;1.26;100.00
84318;BME280;74497;51.654;14.238;2023-12-07T05:04:04;100888.81;;;1.25;100.00
84318;BME280;74497;51.654;14.238;2023-12-07T05:06:34;100893.09;;;1.27;100.00
84318;BME280;74497;51.654;14.238;2023-12-07T05:08:59;100892.81;;;1.32;100.00
84318;BME280;74497;51.654;14.238;2023-12-07T05:11:26;100895.44;;;1.32;100.00
84318;BME280;74497;51.654;14.238;2023-12-07T05:13:52;100894.59;;;1.31;100.00
84318;BME280;74497;51.654;14.238;2023-12-07T05:16:17;100901.97;;;1.25;100.00
84318;BME280;74497;51.654;14.238;2023-12-07T05:18:43;100898.25;;;1.29;100.00
84318;BME280;74497;51.654;14.238;2023-12-07T05:21:09;100899.78;;;1.33;100.00
84318;BME280;74497;51.654;14.238;2023-12-07T05:23:35;100902.25;;;1.36;100.00
84318;BME280;74497;51.654;14.238;2023-12-07T05:26:01;100900.38;;;1.38;100.00
84318;BME280;74497;51.654;14.238;2023-12-07T05:28:26;100899.44;;;1.39;100.00
84318;BME280;74497;51.654;14.238;2023-12-07T05:30:52;100907.19;;;1.42;100.00
84318;BME280;74497;51.654;14.238;2023-12-07T05:33:18;100908.28;;;1.38;100.00
84318;BME280;74497;51.654;14.238;2023-12-07T05:35:47;100907.28;;;1.41;100.00
84318;BME280;74497;51.654;14.238;2023-12-07T05:38:16;100913.47;;;1.40;100.00
84318;BME280;74497;51.654;14.238;2023-12-07T05:40:42;100906.44;;;1.40;100.00
84318;BME280;74497;51.654;14.238;2023-12-07T05:43:07;100916.09;;;1.40;100.00
84318;BME280;74497;51.654;14.238;2023-12-07T05:45:33;100912.59;;;1.39;100.00
84318;BME280;74497;51.654;14.238;2023-12-07T05:47:59;100917.97;;;1.38;100.00
84318;BME280;74497;51.654;14.238;2023-12-07T05:50:24;100914.66;;;1.34;100.00
84318;BME280;74497;51.654;14.238;2023-12-07T05:52:50;100916.41;;;1.33;100.00
84318;BME280;74497;51.654;14.238;2023-12-07T05:55:16;100919.00;;;1.35;100.00
84318;BME280;74497;51.654;14.238;2023-12-07T05:57:45;100928.34;;;1.41;100.00
84318;BME280;74497;51.654;14.238;2023-12-07T06:00:11;100931.81;;;1.41;100.00
84318;BME280;74497;51.654;14.238;2023-12-07T06:02:37;100922.16;;;1.42;100.00
84318;BME280;74497;51.654;14.238;2023-12-07T06:05:02;100930.88;;;1.42;100.00
84318;BME280;74497;51.654;14.238;2023-12-07T06:07:30;100932.75;;;1.40;100.00
84318;BME280;74497;51.654;14.238;2023-12-07T06:09:56;100931.75;;;1.43;100.00
84318;BME280;74497;51.654;14.238;2023-12-07T06:12:22;100930.03;;;1.42;100.00
84318;BME280;74497;51.654;14.238;2023-12-07T06:14:48;100939.88;;;1.38;100.00
84318;BME280;74497;51.654;14.238;2023-12-07T06:17:14;100930.44;;;1.34;100.00
84318;BME280;74497;51.654;14.238;2023-12-07T06:19:39;100934.84;;;1.33;100.00
84318;BME280;74497;51.654;14.238;2023-12-07T06:22:06;100933.84;;;1.36;100.00
84318;BME280;74497;51.654;14.238;2023-12-07T06:24:31;100931.22;;;1.36;100.00
84318;BME280;74497;51.654;14.238;2023-12-07T06:26:58;100931.22;;;1.36;100.00
84318;BME280;74497;51.654;14.238;2023-12-07T06:29:24;100933.00;;;1.35;100.00
84318;BME280;74497;51.654;14.238;2023-12-07T06:31:50;100940.19;;;1.32;100.00
84318;BME280;74497;51.654;14.238;2023-12-07T06:34:16;100942.66;;;1.35;100.00
84318;BME280;74497;51.654;14.238;2023-12-07T06:36:42;100941.81;;;1.34;100.00
84318;BME280;74497;51.654;14.238;2023-12-07T06:39:09;100951.94;;;1.42;100.00
84318;BME280;74497;51.654;14.238;2023-12-07T06:41:34;100953.63;;;1.43;100.00
84318;BME280;74497;51.654;14.238;2023-12-07T06:44:00;100948.38;;;1.43;100.00
84318;BME280;74497;51.654;14.238;2023-12-07T06:46:26;100947.63;;;1.41;100.00
84318;BME280;74497;51.654;14.238;2023-12-07T06:48:52;100949.22;;;1.44;100.00
84318;BME280;74497;51.654;14.238;2023-12-07T06:51:17;100949.22;;;1.44;100.00
84318;BME280;74497;51.654;14.238;2023-12-07T06:53:43;100947.44;;;1.44;100.00
84318;BME280;74497;51.654;14.238;2023-12-07T06:56:09;100950.06;;;1.44;100.00
84318;BME280;74497;51.654;14.238;2023-12-07T06:58:34;100952.88;;;1.41;100.00
84318;BME280;74497;51.654;14.238;2023-12-07T07:01:00;100959.84;;;1.42;100.00
84318;BME280;74497;51.654;14.238;2023-12-07T07:03:26;100957.22;;;1.42;100.00
84318;BME280;74497;51.654;14.238;2023-12-07T07:05:54;100958.19;;;1.40;100.00
84318;BME280;74497;51.654;14.238;2023-12-07T07:08:20;100957.28;;;1.41;100.00
84318;BME280;74497;51.654;14.238;2023-12-07T07:10:45;100961.53;;;1.43;100.00
84318;BME280;74497;51.654;14.238;2023-12-07T07:13:12;100971.13;;;1.44;100.00
84318;BME280;74497;51.654;14.238;2023-12-07T07:15:42;100970.03;;;1.48;100.00
84318;BME280;74497;51.654;14.238;2023-12-07T07:18:08;100976.41;;;1.44;100.00
84318;BME280;74497;51.654;14.238;2023-12-07T07:20:34;100984.06;;;1.49;100.00
84318;BME280;74497;51.654;14.238;2023-12-07T07:22:59;100981.25;;;1.52;100.00
84318;BME280;74497;51.654;14.238;2023-12-07T07:25:25;100983.31;;;1.47;100.00
84318;BME280;74497;51.654;14.238;2023-12-07T07:27:51;100990.31;;;1.46;100.00
84318;BME280;74497;51.654;14.238;2023-12-07T07:30:17;100982.38;;;1.48;100.00
84318;BME280;74497;51.654;14.238;2023-12-07T07:32:43;100986.50;;;1.52;100.00
84318;BME280;74497;51.654;14.238;2023-12-07T07:35:09;100982.81;;;1.56;100.00
84318;BME280;74497;51.654;14.238;2023-12-07T07:37:40;100982.56;;;1.60;100.00
84318;BME280;74497;51.654;14.238;2023-12-07T07:40:08;100980.69;;;1.62;100.00
84318;BME280;74497;51.654;14.238;2023-12-07T07:42:38;100979.84;;;1.62;100.00
84318;BME280;74497;51.654;14.238;2023-12-07T07:45:06;100986.91;;;1.61;100.00
84318;BME280;74497;51.654;14.238;2023-12-07T07:47:32;100984.03;;;1.66;100.00
84318;BME280;74497;51.654;14.238;2023-12-07T07:49:58;100985.88;;;1.64;100.00
84318;BME280;74497;51.654;14.238;2023-12-07T07:52:24;100989.97;;;1.70;100.00
84318;BME280;74497;51.654;14.238;2023-12-07T07:54:50;100984.56;;;1.73;100.00
84318;BME280;74497;51.654;14.238;2023-12-07T07:57:16;100990.41;;;1.78;100.00
84318;BME280;74497;51.654;14.238;2023-12-07T07:59:42;100988.56;;;1.80;100.00
84318;BME280;74497;51.654;14.238;2023-12-07T08:02:07;100985.84;;;1.81;100.00
84318;BME280;74497;51.654;14.238;2023-12-07T08:04:33;101000.63;;;1.84;100.00
84318;BME280;74497;51.654;14.238;2023-12-07T08:06:59;100996.91;;;1.88;100.00
84318;BME280;74497;51.654;14.238;2023-12-07T08:09:25;100994.16;;;1.89;100.00
84318;BME280;74497;51.654;14.238;2023-12-07T08:11:51;100991.53;;;1.89;100.00
84318;BME280;74497;51.654;14.238;2023-12-07T08:14:17;100995.97;;;1.89;100.00
84318;BME280;74497;51.654;14.238;2023-12-07T08:16:44;100989.75;;;1.90;100.00
84318;BME280;74497;51.654;14.238;2023-12-07T08:19:10;100983.41;;;1.94;100.00
84318;BME280;74497;51.654;14.238;2023-12-07T08:21:35;100986.03;;;1.94;100.00
84318;BME280;74497;51.654;14.238;2023-12-07T08:24:01;100989.69;;;1.92;100.00
84318;BME280;74497;51.654;14.238;2023-12-07T08:26:27;100992.00;;;1.98;100.00
84318;BME280;74497;51.654;14.238;2023-12-07T08:28:53;100989.19;;;2.01;100.00
84318;BME280;74497;51.654;14.238;2023-12-07T08:31:19;100993.38;;;2.05;100.00
84318;BME280;74497;51.654;14.238;2023-12-07T08:33:45;100999.56;;;2.04;100.00
84318;BME280;74497;51.654;14.238;2023-12-07T08:36:11;100994.03;;;2.08;100.00
84318;BME280;74497;51.654;14.238;2023-12-07T08:38:36;100992.19;;;2.10;100.00
84318;BME280;74497;51.654;14.238;2023-12-07T08:41:02;100997.44;;;2.10;100.00
84318;BME280;74497;51.654;14.238;2023-12-07T08:43:28;101005.25;;;2.12;100.00
84318;BME280;74497;51.654;14.238;2023-12-07T08:45:55;101008.66;;;2.14;100.00
84318;BME280;74497;51.654;14.238;2023-12-07T08:48:21;101001.09;;;2.08;100.00
84318;BME280;74497;51.654;14.238;2023-12-07T08:50:47;101003.56;;;2.11;100.00
84318;BME280;74497;51.654;14.238;2023-12-07T08:53:13;101008.91;;;2.09;100.00
84318;BME280;74497;51.654;14.238;2023-12-07T08:55:38;101010.78;;;2.07;100.00
84318;BME280;74497;51.654;14.238;2023-12-07T08:58:05;101001.94;;;2.08;100.00
84318;BME280;74497;51.654;14.238;2023-12-07T09:00:32;101004.47;;;2.10;100.00
84318;BME280;74497;51.654;14.238;2023-12-07T09:02:57;101013.59;;;2.04;100.00
84318;BME280;74497;51.654;14.238;2023-12-07T09:05:23;101017.13;;;2.03;100.00
84318;BME280;74497;51.654;14.238;2023-12-07T09:07:49;101019.09;;;2.00;100.00
84318;BME280;74497;51.654;14.238;2023-12-07T09:10:14;101022.50;;;2.02;100.00
84318;BME280;74497;51.654;14.238;2023-12-07T09:12:40;101015.53;;;2.01;100.00
84318;BME280;74497;51.654;14.238;2023-12-07T09:15:07;101012.66;;;2.05;100.00
84318;BME280;74497;51.654;14.238;2023-12-07T09:17:37;101014.16;;;2.09;100.00
84318;BME280;74497;51.654;14.238;2023-12-07T09:20:09;101011.28;;;2.14;100.00
84318;BME280;74497;51.654;14.238;2023-12-07T09:22:46;101018.53;;;2.10;100.00
84318;BME280;74497;51.654;14.238;2023-12-07T09:25:12;101019.19;;;2.14;100.00
84318;BME280;74497;51.654;14.238;2023-12-07T09:27:39;101017.16;;;2.19;100.00
84318;BME280;74497;51.654;14.238;2023-12-07T09:30:08;101018.72;;;2.23;100.00
84318;BME280;74497;51.654;14.238;2023-12-07T09:32:37;101016.94;;;2.24;100.00
84318;BME280;74497;51.654;14.238;2023-12-07T09:35:04;101017.69;;;2.26;100.00
84318;BME280;74497;51.654;14.238;2023-12-07T09:37:33;101008.75;;;2.28;100.00
84318;BME280;74497;51.654;14.238;2023-12-07T09:39:58;101006.81;;;2.32;100.00
84318;BME280;74497;51.654;14.238;2023-12-07T09:42:24;101009.34;;;2.33;100.00
84318;BME280;74497;51.654;14.238;2023-12-07T09:44:50;101010.97;;;2.36;100.00
84318;BME280;74497;51.654;14.238;2023-12-07T09:47:16;101017.00;;;2.38;100.00
84318;BME280;74497;51.654;14.238;2023-12-07T09:49:41;101013.69;;;2.34;100.00
84318;BME280;74497;51.654;14.238;2023-12-07T09:52:07;101023.66;;;2.29;100.00
84318;BME280;74497;51.654;14.238;2023-12-07T09:54:33;101014.81;;;2.30;100.00
84318;BME280;74497;51.654;14.238;2023-12-07T09:57:01;101013.78;;;2.33;100.00
84318;BME280;74497;51.654;14.238;2023-12-07T09:59:26;101009.44;;;2.32;100.00
84318;BME280;74497;51.654;14.238;2023-12-07T10:01:52;101009.69;;;2.27;100.00
84318;BME280;74497;51.654;14.238;2023-12-07T10:04:20;101005.19;;;2.29;100.00
84318;BME280;74497;51.654;14.238;2023-12-07T10:06:46;101013.00;;;2.31;100.00
84318;BME280;74497;51.654;14.238;2023-12-07T10:09:13;101011.13;;;2.33;100.00
84318;BME280;74497;51.654;14.238;2023-12-07T10:11:40;101006.81;;;2.32;100.00
84318;BME280;74497;51.654;14.238;2023-12-07T10:14:07;101010.19;;;2.34;100.00
84318;BME280;74497;51.654;14.238;2023-12-07T10:16:35;101005.72;;;2.36;100.00
84318;BME280;74497;51.654;14.238;2023-12-07T10:19:19;101003.66;;;2.41;100.00
84318;BME280;74497;51.654;14.238;2023-12-07T10:21:47;100995.16;;;2.36;100.00
84318;BME280;74497;51.654;14.238;2023-12-07T10:24:15;101003.84;;;2.38;100.00
84318;BME280;74497;51.654;14.238;2023-12-07T10:26:43;100999.31;;;2.40;100.00
84318;BME280;74497;51.654;14.238;2023-12-07T10:29:09;100996.53;;;2.43;100.00
84318;BME280;74497;51.654;14.238;2023-12-07T10:31:36;100993.88;;;2.43;100.00
84318;BME280;74497;51.654;14.238;2023-12-07T10:34:02;100995.59;;;2.44;100.00
84318;BME280;74497;51.654;14.238;2023-12-07T10:36:28;100998.03;;;2.47;100.00
84318;BME280;74497;51.654;14.238;2023-12-07T10:38:54;100992.69;;;2.49;100.00
84318;BME280;74497;51.654;14.238;2023-12-07T10:41:21;100992.59;;;2.50;100.00
84318;BME280;74497;51.654;14.238;2023-12-07T10:43:51;100993.34;;;2.52;100.00
84318;BME280;74497;51.654;14.238;2023-12-07T10:46:20;101001.88;;;2.57;100.00
84318;BME280;74497;51.654;14.238;2023-12-07T10:48:46;100996.41;;;2.60;100.00
84318;BME280;74497;51.654;14.238;2023-12-07T10:53:57;100999.81;;;2.62;100.00
84318;BME280;74497;51.654;14.238;2023-12-07T10:56:43;100994.38;;;2.65;100.00
84318;BME280;74497;51.654;14.238;2023-12-07T10:59:09;100989.28;;;2.62;100.00
84318;BME280;74497;51.654;14.238;2023-12-07T11:01:39;100989.28;;;2.62;100.00
84318;BME280;74497;51.654;14.238;2023-12-07T11:04:06;100978.63;;;2.64;100.00
84318;BME280;74497;51.654;14.238;2023-12-07T11:06:33;100984.09;;;2.61;100.00
84318;BME280;74497;51.654;14.238;2023-12-07T11:09:02;100976.00;;;2.64;100.00
84318;BME280;74497;51.654;14.238;2023-12-07T11:11:45;100977.78;;;2.63;100.00
84318;BME280;74497;51.654;14.238;2023-12-07T11:14:13;100970.63;;;2.65;100.00
84318;BME280;74497;51.654;14.238;2023-12-07T11:16:42;100982.13;;;2.64;100.00
84318;BME280;74497;51.654;14.238;2023-12-07T11:21:58;100975.91;;;2.65;100.00
84318;BME280;74497;51.654;14.238;2023-12-07T11:24:23;100974.19;;;2.64;100.00
84318;BME280;74497;51.654;14.238;2023-12-07T11:26:53;100969.88;;;2.63;100.00
84318;BME280;74497;51.654;14.238;2023-12-07T11:29:26;100971.56;;;2.64;100.00
84318;BME280;74497;51.654;14.238;2023-12-07T11:31:56;100971.75;;;2.61;100.00
84318;BME280;74497;51.654;14.238;2023-12-07T11:34:39;100965.53;;;2.62;100.00
84318;BME280;74497;51.654;14.238;2023-12-07T11:37:10;100975.16;;;2.63;100.00
84318;BME280;74497;51.654;14.238;2023-12-07T11:39:37;100971.75;;;2.61;100.00
84318;BME280;74497;51.654;14.238;2023-12-07T11:42:10;100970.03;;;2.60;100.00
84318;BME280;74497;51.654;14.238;2023-12-07T11:44:40;100974.47;;;2.60;100.00
84318;BME280;74497;51.654;14.238;2023-12-07T11:47:07;100961.38;;;2.58;100.00
84318;BME280;74497;51.654;14.238;2023-12-07T11:49:34;100968.63;;;2.55;100.00
84318;BME280;74497;51.654;14.238;2023-12-07T11:52:00;100959.28;;;2.49;100.00
84318;BME280;74497;51.654;14.238;2023-12-07T11:54:27;100953.06;;;2.50;100.00
84318;BME280;74497;51.654;14.238;2023-12-07T11:56:56;100955.59;;;2.52;100.00
84318;BME280;74497;51.654;14.238;2023-12-07T11:59:22;100949.63;;;2.48;100.00
84318;BME280;74497;51.654;14.238;2023-12-07T12:01:48;100955.78;;;2.49;100.00
84318;BME280;74497;51.654;14.238;2023-12-07T12:04:15;100957.53;;;2.48;100.00
84318;BME280;74497;51.654;14.238;2023-12-07T12:06:43;100952.47;;;2.45;100.00
84318;BME280;74497;51.654;14.238;2023-12-07T12:09:09;100942.66;;;2.47;100.00
84318;BME280;74497;51.654;14.238;2023-12-07T12:11:36;100948.03;;;2.46;100.00
84318;BME280;74497;51.654;14.238;2023-12-07T12:14:01;100949.63;;;2.48;100.00
84318;BME280;74497;51.654;14.238;2023-12-07T12:16:27;100946.09;;;2.49;100.00
84318;BME280;74497;51.654;14.238;2023-12-07T12:18:53;100946.94;;;2.50;100.00
84318;BME280;74497;51.654;14.238;2023-12-07T12:21:20;100943.44;;;2.49;100.00
84318;BME280;74497;51.654;14.238;2023-12-07T12:23:47;100945.25;;;2.49;100.00
84318;BME280;74497;51.654;14.238;2023-12-07T12:26:14;100936.44;;;2.48;100.00
84318;BME280;74497;51.654;14.238;2023-12-07T12:28:40;100941.72;;;2.48;100.00
84318;BME280;74497;51.654;14.238;2023-12-07T12:31:10;100946.25;;;2.46;100.00
84318;BME280;74497;51.654;14.238;2023-12-07T12:33:37;100949.81;;;2.45;100.00
84318;BME280;74497;51.654;14.238;2023-12-07T12:36:05;100942.84;;;2.44;100.00
84318;BME280;74497;51.654;14.238;2023-12-07T12:38:33;100945.66;;;2.41;100.00
84318;BME280;74497;51.654;14.238;2023-12-07T12:40:58;100944.75;;;2.42;100.00
84318;BME280;74497;51.654;14.238;2023-12-07T12:43:24;100951.69;;;2.43;100.00